createdAt,value
2019-03-26T00:02:22.816Z,103096.91
2019-03-26T00:04:52.002Z,103099.12
2019-03-26T00:07:21.190Z,103090.23
2019-03-26T00:09:50.386Z,103102.23
2019-03-26T00:12:19.557Z,103108.45
2019-03-26T00:14:48.737Z,103097.81
2019-03-26T00:17:17.952Z,103094.69
2019-03-26T00:19:47.117Z,103097.32
2019-03-26T00:22:16.312Z,103089.31
2019-03-26T00:24:45.493Z,103079.55
2019-03-26T00:27:14.658Z,103085.77
2019-03-26T00:29:43.881Z,103077.80
2019-03-26T00:32:13.054Z,103067.97
2019-03-26T00:34:42.247Z,103081.34
2019-03-26T00:37:11.484Z,103071.97
2019-03-26T00:39:40.665Z,103077.77
2019-03-26T00:42:09.893Z,103083.09
2019-03-26T00:44:39.284Z,103063.08
2019-03-26T00:47:08.452Z,103074.67
2019-03-26T00:49:37.635Z,103069.75
2019-03-26T00:52:06.889Z,103075.97
2019-03-26T00:54:36.079Z,103072.88
2019-03-26T00:57:05.273Z,103068.42
2019-03-26T00:59:36.212Z,103074.22
2019-03-26T01:02:05.381Z,103076.88
2019-03-26T01:04:34.557Z,103062.23
2019-03-26T01:07:03.828Z,103067.09
2019-03-26T01:09:32.990Z,103056.41
2019-03-26T01:12:02.164Z,103051.07
2019-03-26T01:14:31.347Z,103043.52
2019-03-26T01:17:00.517Z,103042.16
2019-03-26T01:19:29.757Z,103049.28
2019-03-26T01:21:58.956Z,103050.16
2019-03-26T01:24:28.115Z,103046.61
2019-03-26T01:26:57.313Z,103053.74
2019-03-26T01:29:26.483Z,103046.19
2019-03-26T01:31:55.655Z,103054.62
2019-03-26T01:34:24.833Z,103059.08
2019-03-26T01:36:54.058Z,103057.74
2019-03-26T01:39:23.235Z,103062.17
2019-03-26T01:41:52.418Z,103067.97
2019-03-26T01:44:21.592Z,103062.62
2019-03-26T01:46:50.757Z,103058.62
2019-03-26T01:49:19.964Z,103060.41
2019-03-26T01:51:49.133Z,103064.37
2019-03-26T01:54:18.301Z,103064.38
2019-03-26T01:56:47.500Z,103059.08
2019-03-26T01:59:16.675Z,103071.51
2019-03-26T02:01:45.933Z,103071.52
2019-03-26T02:04:15.110Z,103074.19
2019-03-26T02:06:44.276Z,103070.63
2019-03-26T02:09:15.634Z,103065.33
2019-03-26T02:11:44.820Z,103068.00
2019-03-26T02:14:13.991Z,103065.30
2019-03-26T02:16:43.196Z,103064.00
2019-03-26T02:19:12.360Z,103073.34
2019-03-26T02:21:41.612Z,103065.75
2019-03-26T02:24:10.786Z,103051.08
2019-03-26T02:26:39.955Z,103055.50
2019-03-26T02:29:09.133Z,103068.42
2019-03-26T02:31:38.299Z,103062.17
2019-03-26T02:34:07.575Z,103055.53
2019-03-26T02:36:36.759Z,103051.53
2019-03-26T02:39:07.360Z,103049.31
2019-03-26T02:41:38.125Z,103037.77
2019-03-26T02:44:07.533Z,103043.52
2019-03-26T02:46:36.721Z,103045.77
2019-03-26T02:49:05.892Z,103033.34
2019-03-26T02:51:35.080Z,103032.84
2019-03-26T02:54:04.605Z,103037.31
2019-03-26T02:56:33.775Z,103043.14
2019-03-26T02:59:02.948Z,103034.64
2019-03-26T03:01:32.118Z,103041.77
2019-03-26T03:04:01.309Z,103048.41
2019-03-26T03:06:30.488Z,103042.19
2019-03-26T03:08:59.719Z,103045.77
2019-03-26T03:11:28.948Z,103045.34
2019-03-26T03:13:58.348Z,103040.47
2019-03-26T03:16:27.632Z,103048.89
2019-03-26T03:18:56.806Z,103050.73
2019-03-26T03:21:27.795Z,103045.83
2019-03-26T03:23:57.008Z,103060.93
2019-03-26T03:26:26.180Z,103057.36
2019-03-26T03:28:55.353Z,103061.81
2019-03-26T03:31:24.657Z,103062.72
2019-03-26T03:33:53.870Z,103062.69
2019-03-26T03:36:23.056Z,103054.27
2019-03-26T03:38:52.253Z,103058.27
2019-03-26T03:41:21.427Z,103052.02
2019-03-26T03:43:50.628Z,103052.47
2019-03-26T03:46:19.867Z,103052.05
2019-03-26T03:48:49.785Z,103052.47
2019-03-26T03:51:22.242Z,103050.23
2019-03-26T03:53:51.558Z,103050.69
2019-03-26T03:56:22.422Z,103048.50
2019-03-26T03:58:52.465Z,103047.59
2019-03-26T04:01:21.646Z,103043.13
2019-03-26T04:03:50.827Z,103042.25
2019-03-26T04:06:19.997Z,103034.22
2019-03-26T04:08:49.239Z,103034.25
2019-03-26T04:11:18.423Z,103043.59
2019-03-26T04:13:47.542Z,103048.47
2019-03-26T04:16:16.717Z,103054.23
2019-03-26T04:18:45.831Z,103054.23
2019-03-26T04:21:15.372Z,103056.94
2019-03-26T04:23:44.545Z,103053.78
2019-03-26T04:26:13.788Z,103061.81
2019-03-26T04:28:42.972Z,103061.78
2019-03-26T04:31:12.171Z,103067.16
2019-03-26T04:33:41.329Z,103064.03
2019-03-26T04:36:24.582Z,103056.90
2019-03-26T04:38:41.407Z,103060.51
2019-03-26T04:41:10.575Z,103066.72
2019-03-26T04:43:39.776Z,103075.15
2019-03-26T04:46:08.934Z,103074.70
2019-03-26T04:48:38.139Z,103077.34
2019-03-26T04:51:07.323Z,103081.82
2019-03-26T04:53:36.574Z,103086.67
2019-03-26T04:56:05.932Z,103081.83
2019-03-26T04:58:35.197Z,103084.03
2019-03-26T05:01:04.454Z,103076.95
2019-03-26T05:03:33.642Z,103071.20
2019-03-26T05:06:02.743Z,103072.51
2019-03-26T05:08:31.913Z,103071.17
2019-03-26T05:11:01.105Z,103067.20
2019-03-26T05:13:30.277Z,103064.53
2019-03-26T05:15:59.397Z,103068.94
2019-03-26T05:18:28.493Z,103072.51
2019-03-26T05:20:57.664Z,103072.50
2019-03-26T05:23:26.843Z,103076.06
2019-03-26T05:25:56.855Z,103076.05
2019-03-26T05:28:26.062Z,103072.53
2019-03-26T05:30:55.171Z,103078.31
2019-03-26T05:33:24.333Z,103076.98
2019-03-26T05:35:53.580Z,103077.41
2019-03-26T05:38:22.774Z,103082.31
2019-03-26T05:40:51.988Z,103076.53
2019-03-26T05:43:21.177Z,103074.75
2019-03-26T05:45:50.349Z,103057.45
2019-03-26T05:48:19.530Z,103077.84
2019-03-26T05:50:48.843Z,103079.17
2019-03-26T05:53:18.065Z,103080.08
2019-03-26T05:55:47.328Z,103078.72
2019-03-26T05:58:16.500Z,103080.94
2019-03-26T06:00:45.667Z,103084.50
2019-03-26T06:03:14.844Z,103084.50
2019-03-26T06:05:44.089Z,103084.49
2019-03-26T06:08:13.245Z,103079.59
2019-03-26T06:10:42.413Z,103091.11
2019-03-26T06:13:11.586Z,103088.41
2019-03-26T06:15:40.757Z,103083.91
2019-03-26T06:18:09.965Z,103082.52
2019-03-26T06:20:39.167Z,103094.53
2019-03-26T06:23:08.247Z,103094.54
2019-03-26T06:25:37.438Z,103090.99
2019-03-26T06:28:06.623Z,103094.55
2019-03-26T06:30:35.824Z,103088.78
2019-03-26T06:33:05.007Z,103089.23
2019-03-26T06:35:34.187Z,103085.66
2019-03-26T06:38:03.385Z,103084.78
2019-03-26T06:40:32.493Z,103080.34
2019-03-26T06:43:01.689Z,103082.46
2019-03-26T06:45:30.864Z,103081.13
2019-03-26T06:48:00.074Z,103073.93
2019-03-26T06:50:29.332Z,103068.47
2019-03-26T06:52:58.438Z,103081.99
2019-03-26T06:55:27.609Z,103084.23
2019-03-26T06:57:56.787Z,103087.28
2019-03-26T07:00:35.356Z,103087.28
2019-03-26T07:03:06.303Z,103078.47
2019-03-26T07:05:35.510Z,103078.47
2019-03-26T07:08:04.759Z,103083.98
2019-03-26T07:10:33.921Z,103088.22
2019-03-26T07:13:03.112Z,103077.53
2019-03-26T07:15:32.307Z,103085.06
2019-03-26T07:18:01.496Z,103080.89
2019-03-26T07:20:30.682Z,103086.31
2019-03-26T07:22:59.947Z,103086.23
2019-03-26T07:25:29.096Z,103092.29
2019-03-26T07:27:58.308Z,103088.11
2019-03-26T07:30:39.200Z,103095.72
2019-03-26T07:33:08.554Z,103090.81
2019-03-26T07:35:37.801Z,103145.98
2019-03-26T07:38:07.132Z,103099.69
2019-03-26T07:40:36.402Z,103103.63
2019-03-26T07:43:05.801Z,103103.63
2019-03-26T07:45:35.071Z,103107.56
2019-03-26T07:48:04.438Z,103107.56
2019-03-26T07:50:33.681Z,103107.16
2019-03-26T07:53:02.876Z,103116.06
2019-03-26T07:55:32.134Z,103116.06
2019-03-26T07:58:01.327Z,103093.50
2019-03-26T08:00:32.957Z,103093.50
2019-03-26T08:03:02.186Z,103106.38
2019-03-26T08:05:31.364Z,103099.60
2019-03-26T08:08:00.677Z,103097.63
2019-03-26T08:10:29.932Z,103100.41
2019-03-26T08:12:59.153Z,103103.92
2019-03-26T08:15:28.349Z,103113.40
2019-03-26T08:17:57.485Z,103101.66
2019-03-26T08:20:26.677Z,103101.66
2019-03-26T08:22:55.876Z,103114.22
2019-03-26T08:25:25.089Z,103104.97
2019-03-26T08:27:54.258Z,103111.85
2019-03-26T08:30:23.440Z,103116.94
2019-03-26T08:32:52.615Z,103119.59
2019-03-26T08:35:21.805Z,103116.14
2019-03-26T08:37:50.995Z,103125.05
2019-03-26T08:40:23.247Z,103125.05
2019-03-26T08:42:51.060Z,103124.47
2019-03-26T08:45:20.275Z,103124.47
2019-03-26T08:47:49.459Z,103129.10
2019-03-26T08:50:18.699Z,103129.10
2019-03-26T08:52:47.869Z,103119.33
2019-03-26T08:55:17.036Z,103124.36
2019-03-26T08:57:46.234Z,103128.69
2019-03-26T09:00:15.821Z,103128.69
2019-03-26T09:02:45.060Z,103131.84
2019-03-26T09:05:14.478Z,103139.09
2019-03-26T09:07:43.661Z,103139.09
2019-03-26T09:10:14.037Z,103137.64
2019-03-26T09:12:43.230Z,103143.83
2019-03-26T09:15:14.439Z,103135.37
2019-03-26T09:17:44.676Z,103143.52
2019-03-26T09:20:14.406Z,103147.39
2019-03-26T09:22:43.629Z,103147.39
2019-03-26T09:25:13.040Z,103148.48
2019-03-26T09:27:42.226Z,103159.36
2019-03-26T09:30:13.330Z,103158.30
2019-03-26T09:32:42.510Z,103148.92
2019-03-26T09:35:12.338Z,103148.92
2019-03-26T09:37:41.521Z,103160.98
2019-03-26T09:40:11.035Z,103160.98
2019-03-26T09:42:40.334Z,103163.28
2019-03-26T09:45:11.994Z,103168.94
2019-03-26T09:47:41.181Z,103168.86
2019-03-26T09:50:11.653Z,103168.86
2019-03-26T09:52:40.771Z,103168.57
2019-03-26T09:55:10.395Z,103164.63
2019-03-26T09:57:39.663Z,103160.72
2019-03-26T10:00:12.644Z,103154.05
2019-03-26T10:02:43.338Z,103168.98
2019-03-26T10:05:13.145Z,103161.69
2019-03-26T10:07:42.342Z,103154.77
2019-03-26T10:10:13.202Z,103154.77
2019-03-26T10:12:42.379Z,103150.50
2019-03-26T10:15:12.111Z,103147.39
2019-03-26T10:17:41.300Z,103134.87
2019-03-26T10:20:10.628Z,103134.87
2019-03-26T10:22:39.897Z,103142.08
2019-03-26T10:25:11.252Z,103142.08
2019-03-26T10:27:40.519Z,103143.33
2019-03-26T10:30:12.577Z,103129.16
2019-03-26T10:32:41.754Z,103141.96
2019-03-26T10:35:11.176Z,103138.02
2019-03-26T10:37:40.389Z,103134.05
2019-03-26T10:40:11.851Z,103132.12
2019-03-26T10:42:41.042Z,103137.98
2019-03-26T10:45:10.362Z,103137.98
2019-03-26T10:47:39.524Z,103137.12
2019-03-26T10:50:09.339Z,103122.02
2019-03-26T10:52:38.528Z,103122.02
2019-03-26T10:55:07.785Z,103128.31
2019-03-26T10:57:36.971Z,103125.98
2019-03-26T11:00:06.905Z,103131.55
2019-03-26T11:02:36.075Z,103133.08
2019-03-26T11:05:08.568Z,103133.08
2019-03-26T11:07:37.749Z,103136.80
2019-03-26T11:10:08.267Z,103135.77
2019-03-26T11:12:37.576Z,103134.23
2019-03-26T11:15:08.695Z,103130.98
2019-03-26T11:17:37.888Z,103128.50
2019-03-26T11:20:08.127Z,103135.00
2019-03-26T11:22:37.464Z,103135.00
2019-03-26T11:25:11.880Z,103137.17
2019-03-26T11:27:39.738Z,103134.75
2019-03-26T11:30:10.069Z,103116.09
2019-03-26T11:32:39.274Z,103117.00
2019-03-26T11:35:08.984Z,103119.36
2019-03-26T11:37:39.143Z,103110.12
2019-03-26T11:40:09.051Z,103119.64
2019-03-26T11:42:38.220Z,103120.39
2019-03-26T11:45:09.286Z,103123.88
2019-03-26T11:47:39.793Z,103111.44
2019-03-26T11:50:10.346Z,103108.61
2019-03-26T11:52:40.376Z,103105.81
2019-03-26T11:55:11.319Z,103103.66
2019-03-26T11:57:40.487Z,103105.09
2019-03-26T12:00:13.306Z,103103.68
2019-03-26T12:02:42.548Z,103096.05
2019-03-26T12:05:12.250Z,103096.10
2019-03-26T12:07:42.906Z,103096.10
2019-03-26T12:10:13.558Z,103095.76
2019-03-26T12:12:42.755Z,103086.82
2019-03-26T12:15:12.600Z,103083.71
2019-03-26T12:17:41.783Z,103083.71
2019-03-26T12:20:11.523Z,103091.27
2019-03-26T12:22:40.968Z,103084.05
2019-03-26T12:25:10.688Z,103080.81
2019-03-26T12:27:39.875Z,103080.81
2019-03-26T12:30:09.393Z,103082.56
2019-03-26T12:32:40.937Z,103080.91
2019-03-26T12:35:11.434Z,103079.03
2019-03-26T12:37:40.618Z,103079.03
2019-03-26T12:40:09.993Z,103075.97
2019-03-26T12:42:39.176Z,103091.45
2019-03-26T12:45:08.696Z,103090.05
2019-03-26T12:47:37.897Z,103083.16
2019-03-26T12:50:07.793Z,103077.27
2019-03-26T12:52:36.965Z,103075.88
2019-03-26T12:55:06.894Z,103073.34
2019-03-26T12:57:36.096Z,103073.34
2019-03-26T13:00:07.296Z,103061.19
2019-03-26T13:02:36.518Z,103066.21
2019-03-26T13:05:08.901Z,103067.48
2019-03-26T13:07:38.040Z,103056.53
2019-03-26T13:10:13.731Z,103060.06
2019-03-26T13:12:38.958Z,103049.42
2019-03-26T13:15:08.388Z,103052.97
2019-03-26T13:17:37.578Z,103052.97
2019-03-26T13:20:07.600Z,103053.66
2019-03-26T13:22:36.816Z,103043.66
2019-03-26T13:25:08.349Z,103047.27
2019-03-26T13:27:37.604Z,103043.12
2019-03-26T13:30:07.835Z,103024.30
2019-03-26T13:32:37.014Z,103034.63
2019-03-26T13:35:08.888Z,103034.56
2019-03-26T13:37:38.108Z,103040.95
2019-03-26T13:40:08.300Z,103036.81
2019-03-26T13:42:37.602Z,103038.83
2019-03-26T13:45:07.731Z,103042.01
2019-03-26T13:47:36.881Z,103032.04
2019-03-26T13:50:06.931Z,103028.37
2019-03-26T13:52:36.232Z,103028.12
2019-03-26T13:55:09.330Z,103014.45
2019-03-26T13:57:38.512Z,103017.98
2019-03-26T14:00:09.088Z,103006.59
2019-03-26T14:02:38.264Z,103006.59
2019-03-26T14:05:25.781Z,103015.34
2019-03-26T14:07:55.054Z,103010.59
2019-03-26T14:10:24.313Z,103014.70
2019-03-26T14:12:53.499Z,103009.36
2019-03-26T14:15:22.690Z,103009.33
2019-03-26T14:17:51.896Z,103014.66
2019-03-26T14:20:21.217Z,103011.80
2019-03-26T14:22:50.394Z,103010.92
2019-03-26T14:25:19.591Z,103019.92
2019-03-26T14:27:48.796Z,103019.23
2019-03-26T14:30:21.055Z,103011.19
2019-03-26T14:32:50.797Z,103011.77
2019-03-26T14:35:20.157Z,103013.94
2019-03-26T14:37:51.400Z,102999.28
2019-03-26T14:40:20.220Z,102997.59
2019-03-26T14:42:49.426Z,102997.18
2019-03-26T14:45:18.667Z,103001.92
2019-03-26T14:47:47.844Z,103005.17
2019-03-26T14:50:17.145Z,103002.41
2019-03-26T14:52:46.316Z,102984.18
2019-03-26T14:55:15.613Z,103000.44
2019-03-26T14:57:44.812Z,103001.20
2019-03-26T15:00:14.350Z,103000.28
2019-03-26T15:02:43.552Z,103002.09
2019-03-26T15:05:12.871Z,102998.60
2019-03-26T15:07:42.210Z,103001.05
2019-03-26T15:10:11.641Z,103005.80
2019-03-26T15:12:40.853Z,102985.36
2019-03-26T15:15:10.175Z,103000.89
2019-03-26T15:17:39.357Z,103002.20
2019-03-26T15:20:09.046Z,102997.83
2019-03-26T15:22:38.241Z,102983.44
2019-03-26T15:25:07.509Z,103003.06
2019-03-26T15:27:36.682Z,103012.84
2019-03-26T15:30:08.409Z,103012.84
2019-03-26T15:32:37.519Z,103013.81
2019-03-26T15:35:07.349Z,103012.80
2019-03-26T15:37:36.532Z,103009.73
2019-03-26T15:40:07.643Z,103009.73
2019-03-26T15:42:36.835Z,103002.38
2019-03-26T15:45:08.083Z,103006.22
2019-03-26T15:47:37.215Z,103003.05
2019-03-26T15:50:07.143Z,103009.67
2019-03-26T15:52:36.323Z,103011.46
2019-03-26T15:55:06.462Z,103006.51
2019-03-26T15:57:35.643Z,103010.38
2019-03-26T16:00:08.097Z,103005.96
2019-03-26T16:02:37.697Z,103010.24
2019-03-26T16:05:08.423Z,103012.80
2019-03-26T16:07:37.623Z,103003.58
2019-03-26T16:10:08.766Z,103013.95
2019-03-26T16:12:41.212Z,103013.75
2019-03-26T16:15:09.007Z,103004.01
2019-03-26T16:17:38.191Z,103003.79
2019-03-26T16:20:08.642Z,103015.85
2019-03-26T16:22:37.783Z,102999.91
2019-03-26T16:25:07.530Z,103005.65
2019-03-26T16:27:36.712Z,103003.84
2019-03-26T16:30:07.968Z,103011.39
2019-03-26T16:32:37.222Z,103011.39
2019-03-26T16:35:06.944Z,103008.05
2019-03-26T16:37:36.150Z,103004.45
2019-03-26T16:40:08.387Z,103010.42
2019-03-26T16:42:37.595Z,103004.23
2019-03-26T16:45:08.593Z,103000.23
2019-03-26T16:47:37.790Z,102995.92
2019-03-26T16:50:08.947Z,103002.67
2019-03-26T16:52:38.172Z,102998.14
2019-03-26T16:55:07.621Z,103006.02
2019-03-26T16:57:36.930Z,103006.53
2019-03-26T17:00:09.975Z,103002.12
2019-03-26T17:02:40.971Z,103002.12
2019-03-26T17:05:10.583Z,102994.94
2019-03-26T17:07:39.805Z,102994.94
2019-03-26T17:10:09.531Z,102998.97
2019-03-26T17:12:38.726Z,102991.28
2019-03-26T17:15:08.801Z,102991.28
2019-03-26T17:17:37.970Z,102995.45
2019-03-26T17:20:07.929Z,102988.68
2019-03-26T17:22:37.117Z,102979.79
2019-03-26T17:25:08.104Z,102984.77
2019-03-26T17:27:37.339Z,102989.98
2019-03-26T17:30:07.609Z,102989.98
2019-03-26T17:32:36.813Z,102981.60
2019-03-26T17:35:07.227Z,102995.47
2019-03-26T17:37:36.458Z,102996.78
2019-03-26T17:40:06.574Z,102987.42
2019-03-26T17:42:35.811Z,102990.17
2019-03-26T17:45:06.283Z,102990.56
2019-03-26T17:47:35.455Z,103002.73
2019-03-26T17:50:06.977Z,103014.91
2019-03-26T17:52:36.169Z,103018.03
2019-03-26T17:55:07.667Z,103026.05
2019-03-26T17:57:36.896Z,103020.33
2019-03-26T18:00:15.964Z,103019.84
2019-03-26T18:02:45.157Z,103025.31
2019-03-26T18:05:26.126Z,103024.80
2019-03-26T18:07:55.962Z,103020.40
2019-03-26T18:10:25.200Z,103033.70
2019-03-26T18:12:54.402Z,103033.70
2019-03-26T18:15:23.582Z,103042.22
2019-03-26T18:17:52.756Z,103037.70
2019-03-26T18:20:32.600Z,103039.04
2019-03-26T18:22:53.011Z,103039.07
2019-03-26T18:25:22.236Z,103036.37
2019-03-26T18:27:51.433Z,103043.44
2019-03-26T18:30:20.648Z,103038.55
2019-03-26T18:32:49.838Z,103047.36
2019-03-26T18:35:19.025Z,103054.89
2019-03-26T18:37:48.209Z,103052.26
2019-03-26T18:40:17.546Z,103052.26
2019-03-26T18:42:46.749Z,103057.11
2019-03-26T18:45:16.318Z,103058.04
2019-03-26T18:47:45.664Z,103047.23
2019-03-26T18:50:15.175Z,103058.82
2019-03-26T18:52:44.409Z,103054.91
2019-03-26T18:55:13.859Z,103056.81
2019-03-26T18:57:43.058Z,103057.57
2019-03-26T19:00:15.028Z,103057.57
2019-03-26T19:02:44.322Z,103059.12
2019-03-26T19:05:13.969Z,103059.12
2019-03-26T19:07:43.158Z,103061.69
2019-03-26T19:10:24.045Z,103058.45
2019-03-26T19:12:57.116Z,103062.00
2019-03-26T19:15:24.563Z,103069.61
2019-03-26T19:17:53.826Z,103067.89
2019-03-26T19:20:23.018Z,103074.91
2019-03-26T19:22:52.291Z,103079.00
2019-03-26T19:25:21.484Z,103075.91
2019-03-26T19:27:50.698Z,103075.91
2019-03-26T19:30:19.998Z,103075.38
2019-03-26T19:32:49.150Z,103066.09
2019-03-26T19:35:18.337Z,103075.77
2019-03-26T19:37:47.511Z,103067.12
2019-03-26T19:40:16.796Z,103067.12
2019-03-26T19:42:45.975Z,103072.19
2019-03-26T19:45:15.300Z,103072.19
2019-03-26T19:47:44.560Z,103070.85
2019-03-26T19:50:14.884Z,103078.42
2019-03-26T19:52:44.178Z,103078.05
2019-03-26T19:55:13.529Z,103080.33
2019-03-26T19:57:42.751Z,103088.38
2019-03-26T20:00:16.782Z,103079.05
2019-03-26T20:02:45.973Z,103086.52
2019-03-26T20:05:15.311Z,103090.47
2019-03-26T20:07:44.593Z,103093.21
2019-03-26T20:10:14.539Z,103092.23
2019-03-26T20:12:43.734Z,103097.59
2019-03-26T20:15:14.095Z,103097.59
2019-03-26T20:17:43.262Z,103085.11
2019-03-26T20:20:13.589Z,103092.68
2019-03-26T20:22:42.825Z,103091.95
2019-03-26T20:25:13.189Z,103091.00
2019-03-26T20:27:42.376Z,103091.00
2019-03-26T20:30:13.434Z,103091.50
2019-03-26T20:32:42.632Z,103096.05
2019-03-26T20:35:13.191Z,103096.05
2019-03-26T20:37:42.363Z,103093.47
2019-03-26T20:40:11.996Z,103097.02
2019-03-26T20:42:41.193Z,103053.16
2019-03-26T20:45:14.257Z,103117.08
2019-03-26T20:47:42.539Z,103120.22
2019-03-26T20:50:13.682Z,103120.22
2019-03-26T20:52:43.045Z,103122.33
2019-03-26T20:55:13.245Z,103127.14
2019-03-26T20:57:43.460Z,103120.36
2019-03-26T21:00:13.896Z,103120.36
2019-03-26T21:02:43.124Z,103129.89
2019-03-26T21:05:13.145Z,103125.92
2019-03-26T21:07:42.338Z,103128.25
2019-03-26T21:10:11.563Z,103121.31
2019-03-26T21:12:40.779Z,103117.64
2019-03-26T21:15:10.510Z,103111.88
2019-03-26T21:17:39.794Z,103119.42
2019-03-26T21:20:10.156Z,103120.21
2019-03-26T21:22:39.291Z,103116.29
2019-03-26T21:25:10.627Z,103108.36
2019-03-26T21:27:39.990Z,103109.22
2019-03-26T21:30:15.499Z,103114.01
2019-03-26T21:32:42.828Z,103112.20
2019-03-26T21:35:13.472Z,103107.72
2019-03-26T21:37:42.689Z,103107.80
2019-03-26T21:40:13.593Z,103107.80
2019-03-26T21:42:42.892Z,103113.55
2019-03-26T21:45:12.886Z,103107.34
2019-03-26T21:47:42.064Z,103104.27
2019-03-26T21:50:11.578Z,103104.27
2019-03-26T21:52:40.748Z,103112.67
2019-03-26T21:55:13.409Z,103108.28
2019-03-26T21:57:41.653Z,103107.75
2019-03-26T22:00:12.608Z,103107.75
2019-03-26T22:02:41.791Z,103109.52
2019-03-26T22:05:11.289Z,103110.47
2019-03-26T22:07:40.465Z,103110.47
2019-03-26T22:10:10.789Z,103110.89
2019-03-26T22:12:39.981Z,103109.91
2019-03-26T22:15:10.601Z,103109.78
2019-03-26T22:17:39.735Z,103116.06
2019-03-26T22:20:11.864Z,103115.13
2019-03-26T22:22:41.055Z,103117.86
2019-03-26T22:25:10.332Z,103117.81
2019-03-26T22:27:39.493Z,103117.81
2019-03-26T22:30:10.433Z,103121.39
2019-03-26T22:32:39.625Z,103120.16
2019-03-26T22:35:10.181Z,103116.05
2019-03-26T22:37:39.377Z,103119.38
2019-03-26T22:40:09.288Z,103127.72
2019-03-26T22:42:38.564Z,103128.63
2019-03-26T22:45:10.547Z,103132.66
2019-03-26T22:47:39.999Z,103132.66
2019-03-26T22:50:10.521Z,103128.73
2019-03-26T22:52:39.693Z,103130.22
2019-03-26T22:55:10.563Z,103131.55
2019-03-26T22:57:39.796Z,103130.55
2019-03-26T23:00:17.237Z,103133.73
2019-03-26T23:02:46.480Z,103127.86
2019-03-26T23:05:16.363Z,103129.59
2019-03-26T23:07:45.623Z,103129.58
2019-03-26T23:10:16.929Z,103126.35
2019-03-26T23:12:46.255Z,103131.30
2019-03-26T23:15:25.953Z,103131.30
2019-03-26T23:17:55.156Z,103138.39
2019-03-26T23:20:24.336Z,103124.56
2019-03-26T23:22:53.507Z,103121.80
2019-03-26T23:25:22.779Z,103121.80
2019-03-26T23:27:51.980Z,103125.91
2019-03-26T23:30:21.233Z,103117.09
2019-03-26T23:32:50.429Z,103125.11
2019-03-26T23:35:19.668Z,103119.77
2019-03-26T23:37:48.835Z,103121.98
2019-03-26T23:40:18.073Z,103121.55
2019-03-26T23:42:47.247Z,103122.93
2019-03-26T23:45:16.615Z,103122.93
2019-03-26T23:47:45.799Z,103119.43
2019-03-26T23:50:15.057Z,103117.54
2019-03-26T23:52:44.301Z,103117.96
2019-03-26T23:55:13.592Z,103111.25
2019-03-26T23:57:42.889Z,103111.25
